HKMO/MBA METAR and TAF weather

Enter ICAO airport designator
Station Type Date Time Source
HKMO METAR 2019/08/22 15:00 UTC NOAA

HKMO 221500Z 18009KT 9999 FEW022 26/21 Q1016 NOSIG


Station Type Date Time Source
HKMO Decoded METAR 2019/08/22 15:00 UTC NOAA

Station name not available
Aug 22, 2019 - 11:00 AM EDT / 2019.08.22 1500 UTC
Wind: from the S (180 degrees) at 10 MPH (9 KT):0
Visibility: greater than 7 mile(s):0
Sky conditions: mostly clear
Temperature: 78 F (26 C)
Dew Point: 69 F (21 C)
Relative Humidity: 73%
Pressure (altimeter): 30.00 in. Hg (1016 hPa)
ob: HKMO 221500Z 18009KT 9999 FEW022 26/21 Q1016 NOSIG
cycle: 15

Station Type Date Time Source
HKMO TAF 2019/08/22 12:09 UTC NOAA

TAF TAF HKMO 221100Z 2212/2318 18010KT 9999 SCT024
BECMG 2218/2221 SCT022
TEMPO 2300/2306 -SHRA BKN019 BKN080
BECMG 2309/2312 18010KT SCT025
TEMPO 2315/2318 -SHRA SCT022 BKN080

Example: see airport list